^^
Saratoga-Weather Station Historical Data
Daily Summary for February 28, 2021 Units:  Both    English   Metric
Daily Weekly Monthly Yearly Custom
  High: Low: Average:
Temperature: 42.1 °F /  5.6 °C 35.4 °F /  1.9 °C 37.8 °F /  3.2 °C
Dew Point: 34.7 °F /  1.5 °C 31.6 °F /  -0.2 °C 33.4 °F /  0.8 °C
Humidity: 91% 75% 84%
Wind Speed: 10.1mph /  16.3km/h - 1.9mph /  3.1km/h
Wind Gust: 15mph /  24.1km/h - -
Wind- - East
Pressure: 30.6 in /  1036.2 hPa 30.5 in /  1034.2 hPa -
Precipitation: 0 in /  0.0 mm    
Historical Graphs
 
 
Tabular Data for February 28, 2021
Time Temperature Dew Point Pressure Wind Wind Speed Wind Gust Humidity Rainfall Rate (Hourly) solar
00:00 38.3 °F /  3.5 °C 34.2 °F /  1.2 °C 30.6in /  1036.2hPa Calm   1mph /  1.6km/h 85% 0in /  0.0mm 0 W/m2
00:05 37.9 °F /  3.3 °C 33.8 °F /  1 °C 30.6in /  1036.2hPa SE 0.9mph /  1.4km/h 2mph /  3.2km/h 85% 0in /  0.0mm 0 W/m2
00:10 37.9 °F /  3.3 °C 34.2 °F /  1.2 °C 30.6in /  1036.2hPa Calm   1mph /  1.6km/h 86% 0in /  0.0mm 0 W/m2
00:15 37.9 °F /  3.3 °C 34.3 °F /  1.3 °C 30.6in /  1036.2hPa NE 0.9mph /  1.4km/h 1mph /  1.6km/h 87% 0in /  0.0mm 0 W/m2
00:20 37.9 °F /  3.3 °C 34.3 °F /  1.3 °C 30.6in /  1036.2hPa Calm   1mph /  1.6km/h 87% 0in /  0.0mm 0 W/m2
00:25 37.9 °F /  3.3 °C 34.3 °F /  1.3 °C 30.6in /  1035.9hPa North 2.9mph /  4.7km/h 3mph /  4.8km/h 87% 0in /  0.0mm 0 W/m2
00:30 38.1 °F /  3.4 °C 34.5 °F /  1.4 °C 30.6in /  1035.9hPa East 2.9mph /  4.7km/h 6mph /  9.7km/h 87% 0in /  0.0mm 0 W/m2
00:35 38.3 °F /  3.5 °C 34.5 °F /  1.4 °C 30.6in /  1035.9hPa Calm   2mph /  3.2km/h 86% 0in /  0.0mm 0 W/m2
00:40 38.1 °F /  3.4 °C 34.3 °F /  1.3 °C 30.6in /  1035.9hPa ENE 2.9mph /  4.7km/h 6mph /  9.7km/h 86% 0in /  0.0mm 0 W/m2
00:45 38.1 °F /  3.4 °C 34.3 °F /  1.3 °C 30.6in /  1035.9hPa Calm   1mph /  1.6km/h 86% 0in /  0.0mm 0 W/m2
00:50 37.9 °F /  3.3 °C 34.2 °F /  1.2 °C 30.6in /  1035.9hPa Calm     86% 0in /  0.0mm 0 W/m2
00:55 37.6 °F /  3.1 °C 33.8 °F /  1 °C 30.6in /  1035.9hPa Calm   4mph /  6.4km/h 86% 0in /  0.0mm 0 W/m2
01:01 37.2 °F /  2.9 °C 33.8 °F /  1 °C 30.6in /  1035.9hPa Calm   1mph /  1.6km/h 87% 0in /  0.0mm 0 W/m2
01:06 37.2 °F /  2.9 °C 34 °F /  1.1 °C 30.6in /  1035.9hPa Calm   4mph /  6.4km/h 88% 0in /  0.0mm 0 W/m2
01:11 37 °F /  2.8 °C 33.6 °F /  0.9 °C 30.6in /  1035.9hPa SW 0.9mph /  1.4km/h 2mph /  3.2km/h 87% 0in /  0.0mm 0 W/m2
01:16 36.9 °F /  2.7 °C 33.4 °F /  0.8 °C 30.6in /  1035.9hPa SW 0.9mph /  1.4km/h 1mph /  1.6km/h 87% 0in /  0.0mm 0 W/m2
01:21 36.5 °F /  2.5 °C 33.1 °F /  0.6 °C 30.6in /  1035.9hPa Calm   2mph /  3.2km/h 87% 0in /  0.0mm 0 W/m2
01:26 36.1 °F /  2.3 °C 32.7 °F /  0.4 °C 30.6in /  1035.9hPa Calm     87% 0in /  0.0mm 0 W/m2
01:31 36 °F /  2.2 °C 32.7 °F /  0.4 °C 30.6in /  1035.9hPa Calm     88% 0in /  0.0mm 0 W/m2
01:36 35.8 °F /  2.1 °C 32.5 °F /  0.3 °C 30.6in /  1035.9hPa Calm   2mph /  3.2km/h 88% 0in /  0.0mm 0 W/m2
01:41 35.6 °F /  2 °C 32.7 °F /  0.4 °C 30.6in /  1035.9hPa Calm   2mph /  3.2km/h 89% 0in /  0.0mm 0 W/m2
01:46 35.4 °F /  1.9 °C 32.5 °F /  0.3 °C 30.6in /  1035.9hPa SW 2mph /  3.2km/h 2mph /  3.2km/h 89% 0in /  0.0mm 0 W/m2
01:51 35.4 °F /  1.9 °C 32.7 °F /  0.4 °C 30.6in /  1035.9hPa Calm   3mph /  4.8km/h 90% 0in /  0.0mm 0 W/m2
01:56 36 °F /  2.2 °C 33.6 °F /  0.9 °C 30.6in /  1035.9hPa WSW 0.9mph /  1.4km/h 2mph /  3.2km/h 91% 0in /  0.0mm 0 W/m2
02:01 36.1 °F /  2.3 °C 33.8 °F /  1 °C 30.6in /  1035.9hPa Calm     91% 0in /  0.0mm 0 W/m2
02:06 36.7 °F /  2.6 °C 34.3 °F /  1.3 °C 30.6in /  1035.9hPa Calm   2mph /  3.2km/h 91% 0in /  0.0mm 0 W/m2
02:11 37 °F /  2.8 °C 34.3 °F /  1.3 °C 30.6in /  1035.9hPa SE 2mph /  3.2km/h 2mph /  3.2km/h 90% 0in /  0.0mm 0 W/m2
02:16 37.2 °F /  2.9 °C 34.3 °F /  1.3 °C 30.6in /  1035.9hPa East 8.1mph /  13km/h 9mph /  14.5km/h 89% 0in /  0.0mm 0 W/m2
02:31 37.8 °F /  3.2 °C 34.2 °F /  1.2 °C 30.6in /  1035.6hPa ESE 2mph /  3.2km/h 6mph /  9.7km/h 87% 0in /  0.0mm 0 W/m2
02:41 37.9 °F /  3.3 °C 34.2 °F /  1.2 °C 30.6in /  1035.6hPa East 2mph /  3.2km/h 4mph /  6.4km/h 86% 0in /  0.0mm 0 W/m2
02:46 37.8 °F /  3.2 °C 34 °F /  1.1 °C 30.6in /  1035.6hPa East 0.9mph /  1.4km/h 3mph /  4.8km/h 86% 0in /  0.0mm 0 W/m2
02:51 37.6 °F /  3.1 °C 33.8 °F /  1 °C 30.6in /  1035.2hPa ESE 2.9mph /  4.7km/h 3mph /  4.8km/h 86% 0in /  0.0mm 0 W/m2
02:56 37.6 °F /  3.1 °C 33.8 °F /  1 °C 30.6in /  1035.2hPa ESE 0.9mph /  1.4km/h 2mph /  3.2km/h 86% 0in /  0.0mm 0 W/m2
03:01 37.6 °F /  3.1 °C 33.8 °F /  1 °C 30.6in /  1035.2hPa Calm   3mph /  4.8km/h 86% 0in /  0.0mm 0 W/m2
03:06 37.6 °F /  3.1 °C 34 °F /  1.1 °C 30.6in /  1035.2hPa East 2mph /  3.2km/h 4mph /  6.4km/h 87% 0in /  0.0mm 0 W/m2
03:16 37.6 °F /  3.1 °C 34 °F /  1.1 °C 30.6in /  1035.2hPa East 2.9mph /  4.7km/h 3mph /  4.8km/h 87% 0in /  0.0mm 0 W/m2
03:21 37.6 °F /  3.1 °C 34 °F /  1.1 °C 30.6in /  1035.2hPa SE 0.9mph /  1.4km/h 3mph /  4.8km/h 87% 0in /  0.0mm 0 W/m2
03:26 37.4 °F /  3 °C 33.8 °F /  1 °C 30.6in /  1035.2hPa East 2mph /  3.2km/h 4mph /  6.4km/h 87% 0in /  0.0mm 0 W/m2
03:31 37.6 °F /  3.1 °C 34 °F /  1.1 °C 30.6in /  1035.2hPa East 2mph /  3.2km/h 3mph /  4.8km/h 87% 0in /  0.0mm 0 W/m2
03:36 37.4 °F /  3 °C 33.8 °F /  1 °C 30.6in /  1035.2hPa ESE 2mph /  3.2km/h 3mph /  4.8km/h 87% 0in /  0.0mm 0 W/m2
03:41 37.2 °F /  2.9 °C 33.8 °F /  1 °C 30.6in /  1035.2hPa Calm   1mph /  1.6km/h 87% 0in /  0.0mm 0 W/m2
03:46 37.2 °F /  2.9 °C 33.8 °F /  1 °C 30.6in /  1034.9hPa East 2mph /  3.2km/h 3mph /  4.8km/h 87% 0in /  0.0mm 0 W/m2
03:51 37.2 °F /  2.9 °C 33.8 °F /  1 °C 30.6in /  1034.9hPa ESE 2mph /  3.2km/h 4mph /  6.4km/h 87% 0in /  0.0mm 0 W/m2
03:56 37.2 °F /  2.9 °C 34 °F /  1.1 °C 30.6in /  1034.9hPa ESE 2.9mph /  4.7km/h 3mph /  4.8km/h 88% 0in /  0.0mm 0 W/m2
04:01 37.4 °F /  3 °C 34.2 °F /  1.2 °C 30.6in /  1034.9hPa NE 2mph /  3.2km/h 3mph /  4.8km/h 88% 0in /  0.0mm 0 W/m2
04:06 37.6 °F /  3.1 °C 34 °F /  1.1 °C 30.6in /  1034.9hPa ESE 2mph /  3.2km/h 5mph /  8km/h 87% 0in /  0.0mm 0 W/m2
04:11 37.8 °F /  3.2 °C 34.2 °F /  1.2 °C 30.6in /  1034.9hPa Calm   6mph /  9.7km/h 87% 0in /  0.0mm 0 W/m2
04:16 37.9 °F /  3.3 °C 34.2 °F /  1.2 °C 30.6in /  1034.9hPa East 2.9mph /  4.7km/h 4mph /  6.4km/h 86% 0in /  0.0mm 0 W/m2
04:21 37.9 °F /  3.3 °C 33.8 °F /  1 °C 30.6in /  1034.9hPa ESE 2mph /  3.2km/h 5mph /  8km/h 85% 0in /  0.0mm 0 W/m2
04:26 37.9 °F /  3.3 °C 33.8 °F /  1 °C 30.6in /  1034.5hPa East 2.9mph /  4.7km/h 4mph /  6.4km/h 85% 0in /  0.0mm 0 W/m2
04:31 38.1 °F /  3.4 °C 34 °F /  1.1 °C 30.6in /  1034.9hPa ENE 2mph /  3.2km/h 5mph /  8km/h 85% 0in /  0.0mm 0 W/m2
04:36 38.1 °F /  3.4 °C 34 °F /  1.1 °C 30.6in /  1034.9hPa ESE 2mph /  3.2km/h 2mph /  3.2km/h 85% 0in /  0.0mm 0 W/m2
04:41 37.9 °F /  3.3 °C 33.8 °F /  1 °C 30.6in /  1034.9hPa ESE 0.9mph /  1.4km/h 2mph /  3.2km/h 85% 0in /  0.0mm 0 W/m2
04:46 37.9 °F /  3.3 °C 33.8 °F /  1 °C 30.6in /  1034.9hPa East 0.9mph /  1.4km/h 6mph /  9.7km/h 85% 0in /  0.0mm 0 W/m2
04:51 37.9 °F /  3.3 °C 33.6 °F /  0.9 °C 30.6in /  1034.9hPa ENE 4mph /  6.4km/h 8mph /  12.9km/h 84% 0in /  0.0mm 0 W/m2
04:56 38.1 °F /  3.4 °C 33.8 °F /  1 °C 30.6in /  1034.9hPa East 0.9mph /  1.4km/h 2mph /  3.2km/h 84% 0in /  0.0mm 0 W/m2
05:01 38.1 °F /  3.4 °C 33.8 °F /  1 °C 30.6in /  1034.9hPa Calm   2mph /  3.2km/h 84% 0in /  0.0mm 0 W/m2
05:06 38.1 °F /  3.4 °C 33.8 °F /  1 °C 30.6in /  1034.9hPa ENE 2mph /  3.2km/h 2mph /  3.2km/h 84% 0in /  0.0mm 0 W/m2
05:11 38.1 °F /  3.4 °C 33.8 °F /  1 °C 30.6in /  1034.9hPa ENE 2mph /  3.2km/h 4mph /  6.4km/h 84% 0in /  0.0mm 0 W/m2
05:16 38.1 °F /  3.4 °C 33.8 °F /  1 °C 30.6in /  1034.9hPa ESE 0.9mph /  1.4km/h 3mph /  4.8km/h 84% 0in /  0.0mm 0 W/m2
05:21 38.1 °F /  3.4 °C 33.4 °F /  0.8 °C 30.6in /  1034.9hPa East 2mph /  3.2km/h 7mph /  11.3km/h 83% 0in /  0.0mm 0 W/m2
05:26 38.1 °F /  3.4 °C 33.4 °F /  0.8 °C 30.6in /  1034.9hPa NE 2mph /  3.2km/h 2mph /  3.2km/h 83% 0in /  0.0mm 0 W/m2
05:31 38.1 °F /  3.4 °C 33.4 °F /  0.8 °C 30.6in /  1034.9hPa ESE 2.9mph /  4.7km/h 6mph /  9.7km/h 83% 0in /  0.0mm 0 W/m2
05:36 38.1 °F /  3.4 °C 33.4 °F /  0.8 °C 30.6in /  1034.9hPa ESE 2mph /  3.2km/h 6mph /  9.7km/h 83% 0in /  0.0mm 0 W/m2
05:41 38.1 °F /  3.4 °C 33.4 °F /  0.8 °C 30.6in /  1034.9hPa East 2mph /  3.2km/h 4mph /  6.4km/h 83% 0in /  0.0mm 0 W/m2
05:46 38.1 °F /  3.4 °C 33.4 °F /  0.8 °C 30.6in /  1034.9hPa ENE 4mph /  6.4km/h 4mph /  6.4km/h 83% 0in /  0.0mm 0 W/m2
05:51 38.1 °F /  3.4 °C 33.1 °F /  0.6 °C 30.6in /  1034.9hPa ENE 2mph /  3.2km/h 3mph /  4.8km/h 82% 0in /  0.0mm 0 W/m2
05:56 38.1 °F /  3.4 °C 33.1 °F /  0.6 °C 30.6in /  1034.9hPa ESE 0.9mph /  1.4km/h 2mph /  3.2km/h 82% 0in /  0.0mm 0 W/m2
06:01 38.1 °F /  3.4 °C 33.1 °F /  0.6 °C 30.6in /  1034.9hPa NE 2mph /  3.2km/h 6mph /  9.7km/h 82% 0in /  0.0mm 0 W/m2
06:06 38.1 °F /  3.4 °C 33.1 °F /  0.6 °C 30.6in /  1034.9hPa NE 2mph /  3.2km/h 4mph /  6.4km/h 82% 0in /  0.0mm 0 W/m2
06:11 38.1 °F /  3.4 °C 33.1 °F /  0.6 °C 30.6in /  1034.9hPa ESE 2mph /  3.2km/h 6mph /  9.7km/h 82% 0in /  0.0mm 0 W/m2
06:16 38.1 °F /  3.4 °C 33.1 °F /  0.6 °C 30.6in /  1034.9hPa ENE 0.9mph /  1.4km/h 3mph /  4.8km/h 82% 0in /  0.0mm 0 W/m2
06:22 37.9 °F /  3.3 °C 32.9 °F /  0.5 °C 30.6in /  1034.9hPa Calm   3mph /  4.8km/h 82% 0in /  0.0mm 0 W/m2
06:27 37.9 °F /  3.3 °C 32.9 °F /  0.5 °C 30.6in /  1034.9hPa NE 2mph /  3.2km/h 7mph /  11.3km/h 82% 0in /  0.0mm 0 W/m2
06:32 37.8 °F /  3.2 °C 32.7 °F /  0.4 °C 30.6in /  1034.5hPa Calm   4mph /  6.4km/h 82% 0in /  0.0mm 0 W/m2
06:37 37.6 °F /  3.1 °C 32.5 °F /  0.3 °C 30.6in /  1034.5hPa East 2mph /  3.2km/h 3mph /  4.8km/h 82% 0in /  0.0mm 0 W/m2
06:42 37.4 °F /  3 °C 32.7 °F /  0.4 °C 30.6in /  1034.5hPa ESE 0.9mph /  1.4km/h 2mph /  3.2km/h 83% 0in /  0.0mm 0 W/m2
06:47 37 °F /  2.8 °C 32.4 °F /  0.2 °C 30.6in /  1034.5hPa Calm   4mph /  6.4km/h 83% 0in /  0.0mm 0 W/m2
06:52 36.9 °F /  2.7 °C 32.2 °F /  0.1 °C 30.6in /  1034.5hPa ESE 2.9mph /  4.7km/h 3mph /  4.8km/h 83% 0in /  0.0mm 0 W/m2
06:57 36.7 °F /  2.6 °C 32.4 °F /  0.2 °C 30.6in /  1034.5hPa Calm   2mph /  3.2km/h 84% 0in /  0.0mm 0 W/m2
07:02 36.7 °F /  2.6 °C 32.4 °F /  0.2 °C 30.6in /  1034.5hPa ESE 0.9mph /  1.4km/h 2mph /  3.2km/h 84% 0in /  0.0mm 0 W/m2
07:07 36.3 °F /  2.4 °C 32 °F /  0 °C 30.6in /  1034.5hPa SSE 0.9mph /  1.4km/h 3mph /  4.8km/h 84% 0in /  0.0mm 0 W/m2
07:12 36.1 °F /  2.3 °C 32 °F /  0 °C 30.6in /  1034.5hPa East 2mph /  3.2km/h 2mph /  3.2km/h 85% 0in /  0.0mm 0 W/m2
07:17 36.1 °F /  2.3 °C 32 °F /  0 °C 30.6in /  1034.5hPa East 0.9mph /  1.4km/h 4mph /  6.4km/h 85% 0in /  0.0mm 0 W/m2
07:22 36 °F /  2.2 °C 31.8 °F /  -0.1 °C 30.6in /  1034.5hPa Calm   1mph /  1.6km/h 85% 0in /  0.0mm 5 W/m2
07:27 36 °F /  2.2 °C 31.8 °F /  -0.1 °C 30.6in /  1034.5hPa ESE 2mph /  3.2km/h 3mph /  4.8km/h 85% 0in /  0.0mm 7 W/m2
07:32 35.8 °F /  2.1 °C 31.6 °F /  -0.2 °C 30.6in /  1034.5hPa ESE 0.9mph /  1.4km/h 2mph /  3.2km/h 85% 0in /  0.0mm 9 W/m2
07:52 36 °F /  2.2 °C 31.8 °F /  -0.1 °C 30.6in /  1034.5hPa Calm   2mph /  3.2km/h 85% 0in /  0.0mm 16 W/m2
07:57 36 °F /  2.2 °C 31.8 °F /  -0.1 °C 30.6in /  1034.5hPa Calm   2mph /  3.2km/h 85% 0in /  0.0mm 18 W/m2
08:07 36 °F /  2.2 °C 31.8 °F /  -0.1 °C 30.6in /  1034.5hPa East 0.9mph /  1.4km/h 2mph /  3.2km/h 85% 0in /  0.0mm 21 W/m2
08:12 36 °F /  2.2 °C 31.8 °F /  -0.1 °C 30.5in /  1034.2hPa ENE 2mph /  3.2km/h 2mph /  3.2km/h 85% 0in /  0.0mm 26 W/m2
08:17 36 °F /  2.2 °C 31.8 °F /  -0.1 °C 30.5in /  1034.2hPa SE 0.9mph /  1.4km/h 1mph /  1.6km/h 85% 0in /  0.0mm 25 W/m2
08:22 36.1 °F /  2.3 °C 32 °F /  0 °C 30.5in /  1034.2hPa Calm   4mph /  6.4km/h 85% 0in /  0.0mm 26 W/m2
08:27 36.3 °F /  2.4 °C 32.2 °F /  0.1 °C 30.5in /  1034.2hPa NE 2.9mph /  4.7km/h 3mph /  4.8km/h 85% 0in /  0.0mm 28 W/m2
08:32 36.5 °F /  2.5 °C 32.4 °F /  0.2 °C 30.5in /  1034.2hPa SE 4mph /  6.4km/h 7mph /  11.3km/h 85% 0in /  0.0mm 44 W/m2
08:37 36.9 °F /  2.7 °C 32.5 °F /  0.3 °C 30.5in /  1034.2hPa East 2.9mph /  4.7km/h 8mph /  12.9km/h 84% 0in /  0.0mm 37 W/m2
08:52 37.9 °F /  3.3 °C 32.9 °F /  0.5 °C 30.5in /  1034.2hPa NE 0.9mph /  1.4km/h 6mph /  9.7km/h 82% 0in /  0.0mm 162 W/m2
09:02 38.7 °F /  3.7 °C 33.3 °F /  0.7 °C 30.5in /  1034.2hPa ENE 2mph /  3.2km/h 8mph /  12.9km/h 81% 0in /  0.0mm 183 W/m2
09:07 38.8 °F /  3.8 °C 33.3 °F /  0.7 °C 30.5in /  1034.2hPa ENE 0.9mph /  1.4km/h 13mph /  20.9km/h 80% 0in /  0.0mm 204 W/m2
09:12 39 °F /  3.9 °C 33.4 °F /  0.8 °C 30.5in /  1034.2hPa ENE 2.9mph /  4.7km/h 8mph /  12.9km/h 80% 0in /  0.0mm 149 W/m2
09:17 39.4 °F /  4.1 °C 33.4 °F /  0.8 °C 30.5in /  1034.2hPa ESE 2.9mph /  4.7km/h 3mph /  4.8km/h 79% 0in /  0.0mm 107 W/m2
09:22 39.6 °F /  4.2 °C 33.6 °F /  0.9 °C 30.5in /  1034.2hPa ENE 4mph /  6.4km/h 11mph /  17.7km/h 79% 0in /  0.0mm 243 W/m2
09:27 39.7 °F /  4.3 °C 33.8 °F /  1 °C 30.5in /  1034.2hPa NE 8.9mph /  14.3km/h 10mph /  16.1km/h 79% 0in /  0.0mm 193 W/m2
09:32 39.9 °F /  4.4 °C 33.6 °F /  0.9 °C 30.5in /  1034.2hPa ESE 10.1mph /  16.3km/h 14mph /  22.5km/h 78% 0in /  0.0mm 269 W/m2
09:37 40.3 °F /  4.6 °C 34 °F /  1.1 °C 30.5in /  1034.2hPa ENE 2mph /  3.2km/h 12mph /  19.3km/h 78% 0in /  0.0mm 287 W/m2
09:42 40.5 °F /  4.7 °C 34.2 °F /  1.2 °C 30.5in /  1034.2hPa NE 8.9mph /  14.3km/h 14mph /  22.5km/h 78% 0in /  0.0mm 301 W/m2
09:47 40.6 °F /  4.8 °C 34 °F /  1.1 °C 30.5in /  1034.2hPa ENE 4mph /  6.4km/h 12mph /  19.3km/h 77% 0in /  0.0mm 309 W/m2
09:52 40.8 °F /  4.9 °C 33.8 °F /  1 °C 30.5in /  1034.2hPa ENE 6mph /  9.7km/h 9mph /  14.5km/h 76% 0in /  0.0mm 320 W/m2
09:57 41.2 °F /  5.1 °C 34.5 °F /  1.4 °C 30.5in /  1034.2hPa ENE 2mph /  3.2km/h 12mph /  19.3km/h 77% 0in /  0.0mm 332 W/m2
10:02 41.4 °F /  5.2 °C 34.3 °F /  1.3 °C 30.5in /  1034.2hPa East 8.9mph /  14.3km/h 10mph /  16.1km/h 76% 0in /  0.0mm 345 W/m2
10:07 41.5 °F /  5.3 °C 34.5 °F /  1.4 °C 30.5in /  1034.2hPa ENE 2.9mph /  4.7km/h 9mph /  14.5km/h 76% 0in /  0.0mm 353 W/m2
10:12 41.5 °F /  5.3 °C 34.2 °F /  1.2 °C 30.5in /  1034.2hPa ENE 8.1mph /  13km/h 15mph /  24.1km/h 75% 0in /  0.0mm 367 W/m2
10:17 41.7 °F /  5.4 °C 34.3 °F /  1.3 °C 30.5in /  1034.2hPa ENE 4mph /  6.4km/h 5mph /  8km/h 75% 0in /  0.0mm 378 W/m2
10:22 42.1 °F /  5.6 °C 34.7 °F /  1.5 °C 30.5in /  1034.2hPa NE 6mph /  9.7km/h 15mph /  24.1km/h 75% 0in /  0.0mm 388 W/m2
Juneau County Weather
Compliments of Weather Underground - 4 mb